sensor_id;sensor_type;location;lat;lon;timestamp;pressure;altitude;pressure_sealevel;temperature;humidity
35023;BME280;21214;44.912;8.204;2023-11-18T00:01:31;100204.72;;;4.26;100.00
35023;BME280;21214;44.912;8.204;2023-11-18T00:03:58;100194.09;;;4.29;100.00
35023;BME280;21214;44.912;8.204;2023-11-18T00:06:23;100202.50;;;4.34;100.00
35023;BME280;21214;44.912;8.204;2023-11-18T00:08:48;100192.25;;;4.15;100.00
35023;BME280;21214;44.912;8.204;2023-11-18T00:11:15;100201.38;;;4.08;100.00
35023;BME280;21214;44.912;8.204;2023-11-18T00:13:40;100203.28;;;4.20;100.00
35023;BME280;21214;44.912;8.204;2023-11-18T00:16:10;100207.41;;;4.24;100.00
35023;BME280;21214;44.912;8.204;2023-11-18T00:18:41;100210.13;;;4.23;100.00
35023;BME280;21214;44.912;8.204;2023-11-18T00:21:06;100216.34;;;4.20;100.00
35023;BME280;21214;44.912;8.204;2023-11-18T00:23:32;100223.94;;;4.09;100.00
35023;BME280;21214;44.912;8.204;2023-11-18T00:25:58;100221.41;;;4.07;100.00
35023;BME280;21214;44.912;8.204;2023-11-18T00:28:23;100211.16;;;4.04;100.00
35023;BME280;21214;44.912;8.204;2023-11-18T00:30:48;100214.53;;;3.91;100.00
35023;BME280;21214;44.912;8.204;2023-11-18T00:33:14;100216.03;;;3.79;100.00
35023;BME280;21214;44.912;8.204;2023-11-18T00:35:40;100211.84;;;3.77;100.00
35023;BME280;21214;44.912;8.204;2023-11-18T00:38:06;100198.88;;;3.75;100.00
35023;BME280;21214;44.912;8.204;2023-11-18T00:40:31;100208.28;;;3.78;100.00
35023;BME280;21214;44.912;8.204;2023-11-18T00:42:57;100212.59;;;3.79;100.00
35023;BME280;21214;44.912;8.204;2023-11-18T00:45:22;100208.63;;;3.71;100.00
35023;BME280;21214;44.912;8.204;2023-11-18T00:47:48;100217.41;;;3.70;100.00
35023;BME280;21214;44.912;8.204;2023-11-18T00:50:14;100213.91;;;3.54;100.00
35023;BME280;21214;44.912;8.204;2023-11-18T00:52:39;100209.72;;;3.52;100.00
35023;BME280;21214;44.912;8.204;2023-11-18T00:55:09;100202.22;;;3.61;100.00
35023;BME280;21214;44.912;8.204;2023-11-18T00:57:36;100202.72;;;3.52;100.00
35023;BME280;21214;44.912;8.204;2023-11-18T01:00:04;100205.09;;;3.41;100.00
35023;BME280;21214;44.912;8.204;2023-11-18T01:02:30;100209.66;;;3.36;100.00
35023;BME280;21214;44.912;8.204;2023-11-18T01:04:56;100209.78;;;3.35;100.00
35023;BME280;21214;44.912;8.204;2023-11-18T01:07:21;100219.38;;;3.34;100.00
35023;BME280;21214;44.912;8.204;2023-11-18T01:09:47;100219.50;;;3.31;100.00
35023;BME280;21214;44.912;8.204;2023-11-18T01:12:12;100225.25;;;3.38;100.00
35023;BME280;21214;44.912;8.204;2023-11-18T01:14:38;100226.75;;;3.42;100.00
35023;BME280;21214;44.912;8.204;2023-11-18T01:17:05;100225.63;;;3.47;100.00
35023;BME280;21214;44.912;8.204;2023-11-18T01:19:31;100237.06;;;3.45;100.00
35023;BME280;21214;44.912;8.204;2023-11-18T01:21:59;100245.81;;;3.44;100.00
35023;BME280;21214;44.912;8.204;2023-11-18T01:24:24;100230.72;;;3.33;100.00
35023;BME280;21214;44.912;8.204;2023-11-18T01:26:49;100230.72;;;3.33;100.00
35023;BME280;21214;44.912;8.204;2023-11-18T01:29:15;100237.50;;;3.20;100.00
35023;BME280;21214;44.912;8.204;2023-11-18T01:31:42;100237.13;;;3.10;100.00
35023;BME280;21214;44.912;8.204;2023-11-18T01:34:08;100242.50;;;3.07;100.00
35023;BME280;21214;44.912;8.204;2023-11-18T01:36:33;100237.81;;;3.14;100.00
35023;BME280;21214;44.912;8.204;2023-11-18T01:38:59;100241.03;;;3.19;100.00
35023;BME280;21214;44.912;8.204;2023-11-18T01:41:25;100248.44;;;3.26;100.00
35023;BME280;21214;44.912;8.204;2023-11-18T01:43:51;100240.56;;;3.28;100.00
35023;BME280;21214;44.912;8.204;2023-11-18T01:46:18;100239.63;;;3.29;100.00
35023;BME280;21214;44.912;8.204;2023-11-18T01:48:45;100242.56;;;3.23;100.00
35023;BME280;21214;44.912;8.204;2023-11-18T01:51:11;100242.72;;;3.20;100.00
35023;BME280;21214;44.912;8.204;2023-11-18T01:53:37;100239.34;;;3.18;100.00
35023;BME280;21214;44.912;8.204;2023-11-18T01:56:05;100242.63;;;3.21;100.00
35023;BME280;21214;44.912;8.204;2023-11-18T01:58:32;100248.84;;;3.19;100.00
35023;BME280;21214;44.912;8.204;2023-11-18T02:00:58;100253.00;;;3.23;100.00
35023;BME280;21214;44.912;8.204;2023-11-18T02:03:24;100247.91;;;3.20;100.00
35023;BME280;21214;44.912;8.204;2023-11-18T02:05:52;100255.31;;;3.12;100.00
35023;BME280;21214;44.912;8.204;2023-11-18T02:08:17;100261.06;;;3.01;100.00
35023;BME280;21214;44.912;8.204;2023-11-18T02:10:48;100253.25;;;3.01;100.00
35023;BME280;21214;44.912;8.204;2023-11-18T02:13:29;100258.88;;;2.94;100.00
35023;BME280;21214;44.912;8.204;2023-11-18T02:15:58;100256.47;;;2.89;100.00
35023;BME280;21214;44.912;8.204;2023-11-18T02:18:24;100256.03;;;2.81;100.00
35023;BME280;21214;44.912;8.204;2023-11-18T02:20:51;100262.81;;;2.83;100.00
35023;BME280;21214;44.912;8.204;2023-11-18T02:23:17;100263.91;;;2.79;100.00
35023;BME280;21214;44.912;8.204;2023-11-18T02:25:44;100270.81;;;2.80;100.00
35023;BME280;21214;44.912;8.204;2023-11-18T02:28:10;100272.50;;;2.81;100.00
35023;BME280;21214;44.912;8.204;2023-11-18T02:30:35;100269.00;;;2.82;100.00
35023;BME280;21214;44.912;8.204;2023-11-18T02:35:29;100275.31;;;2.77;100.00
35023;BME280;21214;44.912;8.204;2023-11-18T02:37:56;100271.25;;;2.71;100.00
35023;BME280;21214;44.912;8.204;2023-11-18T02:40:28;100267.13;;;2.67;100.00
35023;BME280;21214;44.912;8.204;2023-11-18T02:42:55;100272.78;;;2.41;100.00
35023;BME280;21214;44.912;8.204;2023-11-18T02:45:21;100281.59;;;2.20;100.00
35023;BME280;21214;44.912;8.204;2023-11-18T02:47:47;100278.31;;;1.97;100.00
35023;BME280;21214;44.912;8.204;2023-11-18T02:50:14;100279.72;;;1.86;100.00
35023;BME280;21214;44.912;8.204;2023-11-18T02:52:40;100283.97;;;1.88;100.00
35023;BME280;21214;44.912;8.204;2023-11-18T02:55:06;100277.19;;;1.84;100.00
35023;BME280;21214;44.912;8.204;2023-11-18T02:57:32;100279.66;;;1.87;100.00
35023;BME280;21214;44.912;8.204;2023-11-18T02:59:58;100277.19;;;1.84;100.00
35023;BME280;21214;44.912;8.204;2023-11-18T03:02:28;100265.59;;;1.91;100.00
35023;BME280;21214;44.912;8.204;2023-11-18T03:04:59;100262.84;;;1.94;100.00
35023;BME280;21214;44.912;8.204;2023-11-18T03:07:25;100268.81;;;1.96;100.00
35023;BME280;21214;44.912;8.204;2023-11-18T03:09:52;100272.66;;;2.06;100.00
35023;BME280;21214;44.912;8.204;2023-11-18T03:12:21;100276.69;;;2.14;100.00
35023;BME280;21214;44.912;8.204;2023-11-18T03:14:46;100267.03;;;2.16;100.00
35023;BME280;21214;44.912;8.204;2023-11-18T03:17:13;100277.34;;;2.00;100.00
35023;BME280;21214;44.912;8.204;2023-11-18T03:19:38;100274.22;;;2.11;100.00
35023;BME280;21214;44.912;8.204;2023-11-18T03:22:04;100281.88;;;2.14;100.00
35023;BME280;21214;44.912;8.204;2023-11-18T03:24:30;100285.41;;;2.13;100.00
35023;BME280;21214;44.912;8.204;2023-11-18T03:26:55;100289.84;;;2.11;100.00
35023;BME280;21214;44.912;8.204;2023-11-18T03:29:21;100288.16;;;2.10;100.00
35023;BME280;21214;44.912;8.204;2023-11-18T03:31:46;100287.31;;;2.09;100.00
35023;BME280;21214;44.912;8.204;2023-11-18T03:34:14;100282.13;;;1.90;100.00
35023;BME280;21214;44.912;8.204;2023-11-18T03:36:40;100275.09;;;1.92;100.00
35023;BME280;21214;44.912;8.204;2023-11-18T03:39:05;100284.38;;;1.79;100.00
35023;BME280;21214;44.912;8.204;2023-11-18T03:41:31;100288.44;;;1.66;100.00
35023;BME280;21214;44.912;8.204;2023-11-18T03:43:57;100296.38;;;1.63;100.00
35023;BME280;21214;44.912;8.204;2023-11-18T03:46:22;100288.56;;;1.44;100.00
35023;BME280;21214;44.912;8.204;2023-11-18T03:48:49;100289.50;;;1.42;100.00
35023;BME280;21214;44.912;8.204;2023-11-18T03:51:14;100293.16;;;1.38;100.00
35023;BME280;21214;44.912;8.204;2023-11-18T03:53:42;100295.13;;;1.33;100.00
35023;BME280;21214;44.912;8.204;2023-11-18T03:56:08;100297.47;;;1.39;100.00
35023;BME280;21214;44.912;8.204;2023-11-18T03:58:33;100302.41;;;1.24;100.00
35023;BME280;21214;44.912;8.204;2023-11-18T04:01:00;100304.78;;;1.10;100.00
35023;BME280;21214;44.912;8.204;2023-11-18T04:03:26;100308.66;;;1.00;100.00
35023;BME280;21214;44.912;8.204;2023-11-18T04:05:52;100307.09;;;0.96;100.00
35023;BME280;21214;44.912;8.204;2023-11-18T04:08:17;100320.47;;;1.07;100.00
35023;BME280;21214;44.912;8.204;2023-11-18T04:10:42;100328.56;;;1.21;100.00
35023;BME280;21214;44.912;8.204;2023-11-18T04:13:09;100321.66;;;1.20;100.00
35023;BME280;21214;44.912;8.204;2023-11-18T04:15:34;100323.34;;;1.21;100.00
35023;BME280;21214;44.912;8.204;2023-11-18T04:18:00;100321.00;;;1.36;100.00
35023;BME280;21214;44.912;8.204;2023-11-18T04:20:26;100321.13;;;1.33;100.00
35023;BME280;21214;44.912;8.204;2023-11-18T04:22:52;100326.13;;;1.37;100.00
35023;BME280;21214;44.912;8.204;2023-11-18T04:25:17;100333.72;;;1.42;100.00
35023;BME280;21214;44.912;8.204;2023-11-18T04:27:43;100339.28;;;1.34;100.00
35023;BME280;21214;44.912;8.204;2023-11-18T04:30:09;100327.88;;;1.37;100.00
35023;BME280;21214;44.912;8.204;2023-11-18T04:32:34;100334.25;;;1.50;100.00
35023;BME280;21214;44.912;8.204;2023-11-18T04:35:00;100327.22;;;1.52;100.00
35023;BME280;21214;44.912;8.204;2023-11-18T04:37:32;100337.75;;;1.49;100.00
35023;BME280;21214;44.912;8.204;2023-11-18T04:39:57;100332.28;;;1.55;100.00
35023;BME280;21214;44.912;8.204;2023-11-18T04:42:23;100333.97;;;1.56;100.00
35023;BME280;21214;44.912;8.204;2023-11-18T04:44:48;100330.75;;;1.51;100.00
35023;BME280;21214;44.912;8.204;2023-11-18T04:47:14;100335.69;;;1.57;100.00
35023;BME280;21214;44.912;8.204;2023-11-18T04:49:39;100340.63;;;1.63;100.00
35023;BME280;21214;44.912;8.204;2023-11-18T04:52:05;100339.75;;;1.62;100.00
35023;BME280;21214;44.912;8.204;2023-11-18T04:54:31;100341.22;;;1.49;100.00
35023;BME280;21214;44.912;8.204;2023-11-18T04:56:57;100346.28;;;1.52;100.00
35023;BME280;21214;44.912;8.204;2023-11-18T04:59:23;100338.06;;;1.61;100.00
35023;BME280;21214;44.912;8.204;2023-11-18T05:01:48;100331.91;;;1.64;100.00
35023;BME280;21214;44.912;8.204;2023-11-18T05:04:14;100329.94;;;1.49;100.00
35023;BME280;21214;44.912;8.204;2023-11-18T05:06:39;100335.09;;;1.50;100.00
35023;BME280;21214;44.912;8.204;2023-11-18T05:09:04;100334.25;;;1.50;100.00
35023;BME280;21214;44.912;8.204;2023-11-18T05:11:33;100337.91;;;1.46;100.00
35023;BME280;21214;44.912;8.204;2023-11-18T05:13:59;100344.00;;;1.45;100.00
35023;BME280;21214;44.912;8.204;2023-11-18T05:16:24;100332.03;;;1.61;100.00
35023;BME280;21214;44.912;8.204;2023-11-18T05:18:50;100327.50;;;1.46;100.00
35023;BME280;21214;44.912;8.204;2023-11-18T05:21:15;100336.25;;;1.43;100.00
35023;BME280;21214;44.912;8.204;2023-11-18T05:23:40;100340.78;;;1.40;100.00
35023;BME280;21214;44.912;8.204;2023-11-18T05:26:06;100350.31;;;1.39;100.00
35023;BME280;21214;44.912;8.204;2023-11-18T05:28:31;100346.72;;;1.42;100.00
35023;BME280;21214;44.912;8.204;2023-11-18T05:30:57;100337.75;;;1.49;100.00
35023;BME280;21214;44.912;8.204;2023-11-18T05:33:23;100344.66;;;1.50;100.00
35023;BME280;21214;44.912;8.204;2023-11-18T05:35:48;100338.59;;;1.49;100.00
35023;BME280;21214;44.912;8.204;2023-11-18T05:38:17;100344.72;;;1.48;100.00
35023;BME280;21214;44.912;8.204;2023-11-18T05:40:47;100337.59;;;1.33;100.00
35023;BME280;21214;44.912;8.204;2023-11-18T05:43:29;100333.75;;;1.21;100.00
35023;BME280;21214;44.912;8.204;2023-11-18T05:46:03;100340.25;;;1.32;100.00
35023;BME280;21214;44.912;8.204;2023-11-18T05:48:48;100346.16;;;1.15;100.00
35023;BME280;21214;44.912;8.204;2023-11-18T05:51:18;100344.41;;;1.15;100.00
35023;BME280;21214;44.912;8.204;2023-11-18T05:53:45;100346.63;;;1.04;100.00
35023;BME280;21214;44.912;8.204;2023-11-18T05:56:11;100346.09;;;1.16;100.00
35023;BME280;21214;44.912;8.204;2023-11-18T05:58:37;100341.16;;;1.10;100.00
35023;BME280;21214;44.912;8.204;2023-11-18T06:01:06;100342.59;;;1.17;100.00
35023;BME280;21214;44.912;8.204;2023-11-18T06:03:35;100358.97;;;1.19;100.00
35023;BME280;21214;44.912;8.204;2023-11-18T06:06:13;100369.09;;;1.26;100.00
35023;BME280;21214;44.912;8.204;2023-11-18T06:08:41;100363.78;;;1.29;100.00
35023;BME280;21214;44.912;8.204;2023-11-18T06:11:13;100370.47;;;1.34;100.00
35023;BME280;21214;44.912;8.204;2023-11-18T06:13:43;100385.44;;;1.29;100.00
35023;BME280;21214;44.912;8.204;2023-11-18T06:16:21;100388.28;;;1.23;100.00
35023;BME280;21214;44.912;8.204;2023-11-18T06:18:47;100387.03;;;1.11;100.00
35023;BME280;21214;44.912;8.204;2023-11-18T06:21:14;100384.06;;;1.20;100.00
35023;BME280;21214;44.912;8.204;2023-11-18T06:23:40;100386.25;;;1.09;100.00
35023;BME280;21214;44.912;8.204;2023-11-18T06:26:05;100376.94;;;1.04;100.00
35023;BME280;21214;44.912;8.204;2023-11-18T06:28:31;100381.31;;;1.03;100.00
35023;BME280;21214;44.912;8.204;2023-11-18T06:30:59;100381.16;;;1.06;100.00
35023;BME280;21214;44.912;8.204;2023-11-18T06:33:24;100377.81;;;1.04;100.00
35023;BME280;21214;44.912;8.204;2023-11-18T06:35:53;100388.06;;;1.07;100.00
35023;BME280;21214;44.912;8.204;2023-11-18T06:38:19;100389.66;;;1.11;100.00
35023;BME280;21214;44.912;8.204;2023-11-18T06:40:45;100388.97;;;1.06;100.00
35023;BME280;21214;44.912;8.204;2023-11-18T06:43:11;100398.59;;;1.04;100.00
35023;BME280;21214;44.912;8.204;2023-11-18T06:45:37;100393.34;;;0.84;100.00
35023;BME280;21214;44.912;8.204;2023-11-18T06:48:08;100384.94;;;0.77;100.00
35023;BME280;21214;44.912;8.204;2023-11-18T06:50:34;100398.72;;;0.79;100.00
35023;BME280;21214;44.912;8.204;2023-11-18T06:53:00;100403.22;;;0.76;100.00
35023;BME280;21214;44.912;8.204;2023-11-18T06:55:26;100411.19;;;0.93;100.00
35023;BME280;21214;44.912;8.204;2023-11-18T06:57:52;100415.94;;;1.04;100.00
35023;BME280;21214;44.912;8.204;2023-11-18T07:00:19;100426.13;;;1.08;100.00
35023;BME280;21214;44.912;8.204;2023-11-18T07:02:45;100429.41;;;1.13;100.00
35023;BME280;21214;44.912;8.204;2023-11-18T07:05:12;100419.50;;;1.01;100.00
35023;BME280;21214;44.912;8.204;2023-11-18T07:07:37;100425.19;;;0.89;100.00
35023;BME280;21214;44.912;8.204;2023-11-18T07:10:04;100421.22;;;0.80;100.00
35023;BME280;21214;44.912;8.204;2023-11-18T07:12:31;100419.69;;;0.75;100.00
35023;BME280;21214;44.912;8.204;2023-11-18T07:14:57;100418.66;;;0.79;100.00
35023;BME280;21214;44.912;8.204;2023-11-18T07:17:23;100424.03;;;0.96;100.00
35023;BME280;21214;44.912;8.204;2023-11-18T07:19:48;100431.59;;;1.02;100.00
35023;BME280;21214;44.912;8.204;2023-11-18T07:22:14;100431.47;;;1.05;100.00
35023;BME280;21214;44.912;8.204;2023-11-18T07:24:40;100438.25;;;1.09;100.00
35023;BME280;21214;44.912;8.204;2023-11-18T07:27:06;100436.25;;;1.16;100.00
35023;BME280;21214;44.912;8.204;2023-11-18T07:29:31;100444.63;;;1.22;100.00
35023;BME280;21214;44.912;8.204;2023-11-18T07:31:57;100441.00;;;1.27;100.00
35023;BME280;21214;44.912;8.204;2023-11-18T07:34:23;100431.91;;;1.37;100.00
35023;BME280;21214;44.912;8.204;2023-11-18T07:36:49;100451.41;;;1.27;100.00
35023;BME280;21214;44.912;8.204;2023-11-18T07:39:15;100453.25;;;1.45;100.00
35023;BME280;21214;44.912;8.204;2023-11-18T07:41:49;100453.38;;;1.62;100.00
35023;BME280;21214;44.912;8.204;2023-11-18T07:44:15;100455.59;;;1.71;100.00
35023;BME280;21214;44.912;8.204;2023-11-18T07:46:41;100457.22;;;1.74;100.00
35023;BME280;21214;44.912;8.204;2023-11-18T07:49:09;100462.34;;;1.55;100.00
35023;BME280;21214;44.912;8.204;2023-11-18T07:51:34;100460.13;;;1.66;100.00
35023;BME280;21214;44.912;8.204;2023-11-18T07:54:00;100464.72;;;1.81;100.00
35023;BME280;21214;44.912;8.204;2023-11-18T07:56:26;100470.13;;;1.77;100.00
35023;BME280;21214;44.912;8.204;2023-11-18T07:58:52;100471.97;;;1.73;100.00
35023;BME280;21214;44.912;8.204;2023-11-18T08:01:19;100468.06;;;1.83;100.00
35023;BME280;21214;44.912;8.204;2023-11-18T08:03:46;100461.97;;;1.84;100.00
35023;BME280;21214;44.912;8.204;2023-11-18T08:06:12;100462.44;;;1.94;100.00
35023;BME280;21214;44.912;8.204;2023-11-18T08:08:38;100464.03;;;1.96;100.00
35023;BME280;21214;44.912;8.204;2023-11-18T08:11:04;100463.66;;;2.05;100.00
35023;BME280;21214;44.912;8.204;2023-11-18T08:13:29;100467.38;;;2.19;100.00
35023;BME280;21214;44.912;8.204;2023-11-18T08:15:55;100472.47;;;2.22;100.00
35023;BME280;21214;44.912;8.204;2023-11-18T08:18:23;100471.34;;;2.27;100.00
35023;BME280;21214;44.912;8.204;2023-11-18T08:20:49;100482.97;;;2.39;100.00
35023;BME280;21214;44.912;8.204;2023-11-18T08:23:15;100475.81;;;2.44;100.00
35023;BME280;21214;44.912;8.204;2023-11-18T08:25:40;100470.75;;;2.41;100.00
35023;BME280;21214;44.912;8.204;2023-11-18T08:28:06;100472.13;;;2.48;100.00
35023;BME280;21214;44.912;8.204;2023-11-18T08:30:32;100472.63;;;2.56;100.00
35023;BME280;21214;44.912;8.204;2023-11-18T08:33:01;100483.41;;;2.67;100.00
35023;BME280;21214;44.912;8.204;2023-11-18T08:35:28;100473.97;;;2.83;100.00
35023;BME280;21214;44.912;8.204;2023-11-18T08:37:54;100471.41;;;3.01;100.00
35023;BME280;21214;44.912;8.204;2023-11-18T08:40:19;100475.97;;;3.14;100.00
35023;BME280;21214;44.912;8.204;2023-11-18T08:42:49;100489.28;;;3.27;100.00
35023;BME280;21214;44.912;8.204;2023-11-18T08:45:15;100492.19;;;3.38;100.00
35023;BME280;21214;44.912;8.204;2023-11-18T08:47:47;100490.75;;;3.50;100.00
35023;BME280;21214;44.912;8.204;2023-11-18T08:50:17;100482.25;;;3.63;100.00
35023;BME280;21214;44.912;8.204;2023-11-18T08:52:43;100476.41;;;3.76;100.00
35023;BME280;21214;44.912;8.204;2023-11-18T08:55:18;100475.81;;;3.88;100.00
35023;BME280;21214;44.912;8.204;2023-11-18T08:57:47;100463.03;;;3.99;100.00
35023;BME280;21214;44.912;8.204;2023-11-18T09:00:28;100464.16;;;4.10;100.00
35023;BME280;21214;44.912;8.204;2023-11-18T09:03:13;100460.91;;;4.23;100.00
35023;BME280;21214;44.912;8.204;2023-11-18T09:06:00;100471.56;;;4.35;100.00
35023;BME280;21214;44.912;8.204;2023-11-18T09:08:30;100471.06;;;4.44;100.00
35023;BME280;21214;44.912;8.204;2023-11-18T09:11:01;100482.56;;;4.58;100.00
35023;BME280;21214;44.912;8.204;2023-11-18T09:13:26;100488.06;;;4.69;100.00
35023;BME280;21214;44.912;8.204;2023-11-18T09:15:56;100495.22;;;4.81;100.00
35023;BME280;21214;44.912;8.204;2023-11-18T09:18:22;100491.88;;;4.94;100.00
35023;BME280;21214;44.912;8.204;2023-11-18T09:20:47;100493.88;;;5.05;100.00
35023;BME280;21214;44.912;8.204;2023-11-18T09:23:13;100487.97;;;5.17;100.00
35023;BME280;21214;44.912;8.204;2023-11-18T09:25:41;100492.53;;;5.29;100.00
35023;BME280;21214;44.912;8.204;2023-11-18T09:28:07;100500.59;;;5.41;100.00
35023;BME280;21214;44.912;8.204;2023-11-18T09:30:36;100491.28;;;5.51;100.00
35023;BME280;21214;44.912;8.204;2023-11-18T09:33:04;100471.31;;;5.64;100.00
35023;BME280;21214;44.912;8.204;2023-11-18T09:35:31;100471.69;;;5.72;100.00
35023;BME280;21214;44.912;8.204;2023-11-18T09:37:59;100470.25;;;5.82;100.00
35023;BME280;21214;44.912;8.204;2023-11-18T09:40:25;100464.47;;;5.91;100.00
35023;BME280;21214;44.912;8.204;2023-11-18T09:42:58;100471.69;;;6.02;100.00
35023;BME280;21214;44.912;8.204;2023-11-18T09:45:23;100472.00;;;6.11;100.00
35023;BME280;21214;44.912;8.204;2023-11-18T09:47:48;100463.59;;;6.21;100.00
35023;BME280;21214;44.912;8.204;2023-11-18T09:50:18;100468.38;;;6.28;100.00
35023;BME280;21214;44.912;8.204;2023-11-18T09:52:49;100472.19;;;6.37;100.00
35023;BME280;21214;44.912;8.204;2023-11-18T09:55:26;100476.59;;;6.50;100.00
35023;BME280;21214;44.912;8.204;2023-11-18T09:58:03;100480.53;;;6.57;100.00
35023;BME280;21214;44.912;8.204;2023-11-18T10:00:29;100481.72;;;6.66;100.00
35023;BME280;21214;44.912;8.204;2023-11-18T10:02:58;100478.72;;;6.72;100.00
35023;BME280;21214;44.912;8.204;2023-11-18T10:05:27;100470.28;;;6.81;100.00
35023;BME280;21214;44.912;8.204;2023-11-18T10:07:53;100472.53;;;6.87;100.00
35023;BME280;21214;44.912;8.204;2023-11-18T10:10:21;100465.19;;;6.92;100.00
35023;BME280;21214;44.912;8.204;2023-11-18T10:12:47;100457.69;;;7.01;100.00
35023;BME280;21214;44.912;8.204;2023-11-18T10:15:23;100462.56;;;7.07;100.00
35023;BME280;21214;44.912;8.204;2023-11-18T10:17:49;100460.47;;;7.12;100.00
35023;BME280;21214;44.912;8.204;2023-11-18T10:23:07;100463.41;;;7.20;100.00
35023;BME280;21214;44.912;8.204;2023-11-18T10:25:36;100458.72;;;7.25;100.00
35023;BME280;21214;44.912;8.204;2023-11-18T10:28:06;100449.59;;;7.30;100.00
35023;BME280;21214;44.912;8.204;2023-11-18T10:30:32;100454.44;;;7.36;100.00
35023;BME280;21214;44.912;8.204;2023-11-18T10:32:58;100447.97;;;7.42;100.00
35023;BME280;21214;44.912;8.204;2023-11-18T10:35:32;100444.91;;;7.48;100.00
35023;BME280;21214;44.912;8.204;2023-11-18T10:37:57;100449.66;;;7.56;100.00
35023;BME280;21214;44.912;8.204;2023-11-18T10:40:25;100454.75;;;7.71;100.00
35023;BME280;21214;44.912;8.204;2023-11-18T10:42:52;100462.41;;;7.74;100.00
35023;BME280;21214;44.912;8.204;2023-11-18T10:45:24;100459.38;;;7.80;100.00
35023;BME280;21214;44.912;8.204;2023-11-18T10:47:53;100451.41;;;7.95;100.00
35023;BME280;21214;44.912;8.204;2023-11-18T10:50:21;100453.81;;;7.98;100.00
35023;BME280;21214;44.912;8.204;2023-11-18T10:52:47;100445.53;;;8.04;100.00
35023;BME280;21214;44.912;8.204;2023-11-18T10:55:13;100441.72;;;8.08;100.00
35023;BME280;21214;44.912;8.204;2023-11-18T10:57:44;100437.00;;;8.13;100.00
35023;BME280;21214;44.912;8.204;2023-11-18T11:00:10;100436.47;;;8.20;100.00
35023;BME280;21214;44.912;8.204;2023-11-18T11:02:39;100435.84;;;8.30;100.00
35023;BME280;21214;44.912;8.204;2023-11-18T11:05:06;100436.28;;;8.36;100.00
35023;BME280;21214;44.912;8.204;2023-11-18T11:07:32;100428.06;;;8.53;100.00
35023;BME280;21214;44.912;8.204;2023-11-18T11:09:59;100437.91;;;8.62;100.00
35023;BME280;21214;44.912;8.204;2023-11-18T11:12:29;100442.31;;;8.75;100.00
35023;BME280;21214;44.912;8.204;2023-11-18T11:14:59;100434.72;;;8.83;100.00
35023;BME280;21214;44.912;8.204;2023-11-18T11:17:25;100430.47;;;8.93;100.00
35023;BME280;21214;44.912;8.204;2023-11-18T11:20:04;100428.19;;;9.12;100.00
35023;BME280;21214;44.912;8.204;2023-11-18T11:25:22;100406.38;;;9.45;100.00
35023;BME280;21214;44.912;8.204;2023-11-18T11:27:59;100390.50;;;9.58;100.00
35023;BME280;21214;44.912;8.204;2023-11-18T11:30:40;100388.63;;;9.71;100.00
35023;BME280;21214;44.912;8.204;2023-11-18T11:35:48;100397.22;;;10.19;100.00
35023;BME280;21214;44.912;8.204;2023-11-18T11:38:22;100389.41;;;10.40;100.00
35023;BME280;21214;44.912;8.204;2023-11-18T11:40:50;100383.88;;;10.54;100.00
35023;BME280;21214;44.912;8.204;2023-11-18T11:43:19;100379.53;;;10.64;100.00
35023;BME280;21214;44.912;8.204;2023-11-18T11:45:52;100381.91;;;10.67;100.00
35023;BME280;21214;44.912;8.204;2023-11-18T11:48:19;100373.72;;;10.81;100.00
35023;BME280;21214;44.912;8.204;2023-11-18T11:51:00;100367.78;;;11.00;100.00
35023;BME280;21214;44.912;8.204;2023-11-18T11:53:36;100365.69;;;11.15;100.00
35023;BME280;21214;44.912;8.204;2023-11-18T11:56:04;100361.78;;;11.30;100.00
35023;BME280;21214;44.912;8.204;2023-11-18T11:58:38;100367.47;;;11.46;100.00
35023;BME280;21214;44.912;8.204;2023-11-18T12:01:24;100358.22;;;11.61;100.00
35023;BME280;21214;44.912;8.204;2023-11-18T12:03:51;100357.94;;;11.75;100.00
35023;BME280;21214;44.912;8.204;2023-11-18T12:06:22;100360.41;;;11.98;100.00
35023;BME280;21214;44.912;8.204;2023-11-18T12:08:52;100347.09;;;12.09;100.00
35023;BME280;21214;44.912;8.204;2023-11-18T12:11:20;100342.41;;;12.22;100.00
35023;BME280;21214;44.912;8.204;2023-11-18T12:14:06;100344.94;;;12.33;100.00
35023;BME280;21214;44.912;8.204;2023-11-18T12:19:29;100355.19;;;12.66;100.00
35023;BME280;21214;44.912;8.204;2023-11-18T12:21:56;100359.13;;;12.82;100.00
35023;BME280;21214;44.912;8.204;2023-11-18T12:24:22;100356.50;;;13.01;100.00
35023;BME280;21214;44.912;8.204;2023-11-18T12:26:48;100348.28;;;13.13;99.95
35023;BME280;21214;44.912;8.204;2023-11-18T12:29:30;100342.31;;;13.21;98.85
35023;BME280;21214;44.912;8.204;2023-11-18T12:31:56;100340.06;;;13.36;99.11
35023;BME280;21214;44.912;8.204;2023-11-18T12:34:23;100336.13;;;13.49;95.59
35023;BME280;21214;44.912;8.204;2023-11-18T12:37:12;100331.66;;;13.60;92.54
35023;BME280;21214;44.912;8.204;2023-11-18T12:45:22;100329.00;;;14.06;83.25
35023;BME280;21214;44.912;8.204;2023-11-18T12:47:56;100336.44;;;14.20;82.53
35023;BME280;21214;44.912;8.204;2023-11-18T12:50:27;100332.78;;;14.31;76.97
35023;BME280;21214;44.912;8.204;2023-11-18T12:52:53;100333.03;;;14.38;72.03
35023;BME280;21214;44.912;8.204;2023-11-18T12:55:22;100331.19;;;14.48;71.67
35023;BME280;21214;44.912;8.204;2023-11-18T12:57:48;100336.28;;;14.59;68.32
35023;BME280;21214;44.912;8.204;2023-11-18T13:00:17;100338.63;;;14.62;70.19
35023;BME280;21214;44.912;8.204;2023-11-18T13:02:44;100330.63;;;14.71;66.91
35023;BME280;21214;44.912;8.204;2023-11-18T13:05:09;100323.25;;;14.83;69.88
35023;BME280;21214;44.912;8.204;2023-11-18T13:07:35;100324.00;;;14.93;68.28
35023;BME280;21214;44.912;8.204;2023-11-18T13:10:02;100343.97;;;14.97;63.96
35023;BME280;21214;44.912;8.204;2023-11-18T13:12:29;100349.00;;;15.00;62.19